sensor_id;sensor_type;location;lat;lon;timestamp;P1;durP1;ratioP1;P2;durP2;ratioP2
66272;SDS011;58450;52.150;4.466;2022-10-16T00:01:35;5.20;;;1.25;;
66272;SDS011;58450;52.150;4.466;2022-10-16T00:04:03;4.82;;;1.45;;
66272;SDS011;58450;52.150;4.466;2022-10-16T00:06:32;3.58;;;1.30;;
66272;SDS011;58450;52.150;4.466;2022-10-16T00:09:00;3.65;;;1.20;;
66272;SDS011;58450;52.150;4.466;2022-10-16T00:11:28;2.92;;;1.02;;
66272;SDS011;58450;52.150;4.466;2022-10-16T00:13:59;3.45;;;1.00;;
66272;SDS011;58450;52.150;4.466;2022-10-16T00:16:29;2.50;;;1.17;;
66272;SDS011;58450;52.150;4.466;2022-10-16T00:18:57;2.80;;;1.08;;
66272;SDS011;58450;52.150;4.466;2022-10-16T00:21:26;2.42;;;1.10;;
66272;SDS011;58450;52.150;4.466;2022-10-16T00:23:58;3.00;;;1.05;;
66272;SDS011;58450;52.150;4.466;2022-10-16T00:26:29;3.08;;;1.08;;
66272;SDS011;58450;52.150;4.466;2022-10-16T00:28:58;2.85;;;0.98;;
66272;SDS011;58450;52.150;4.466;2022-10-16T00:31:26;2.15;;;1.00;;
66272;SDS011;58450;52.150;4.466;2022-10-16T00:33:54;1.90;;;0.80;;
66272;SDS011;58450;52.150;4.466;2022-10-16T00:36:22;2.28;;;1.00;;
66272;SDS011;58450;52.150;4.466;2022-10-16T00:38:53;1.83;;;0.80;;
66272;SDS011;58450;52.150;4.466;2022-10-16T00:41:26;2.95;;;1.20;;
66272;SDS011;58450;52.150;4.466;2022-10-16T00:43:55;3.67;;;1.00;;
66272;SDS011;58450;52.150;4.466;2022-10-16T00:46:25;3.08;;;0.90;;
66272;SDS011;58450;52.150;4.466;2022-10-16T00:48:57;2.10;;;0.80;;
66272;SDS011;58450;52.150;4.466;2022-10-16T00:51:30;3.75;;;1.15;;
66272;SDS011;58450;52.150;4.466;2022-10-16T00:54:03;2.85;;;1.00;;
66272;SDS011;58450;52.150;4.466;2022-10-16T00:56:37;4.00;;;0.95;;
66272;SDS011;58450;52.150;4.466;2022-10-16T00:59:07;2.83;;;0.90;;
66272;SDS011;58450;52.150;4.466;2022-10-16T01:01:42;1.73;;;0.90;;
66272;SDS011;58450;52.150;4.466;2022-10-16T01:04:10;1.48;;;0.70;;
66272;SDS011;58450;52.150;4.466;2022-10-16T01:06:39;2.78;;;0.90;;
66272;SDS011;58450;52.150;4.466;2022-10-16T01:09:20;2.45;;;1.00;;
66272;SDS011;58450;52.150;4.466;2022-10-16T01:12:04;1.38;;;0.80;;
66272;SDS011;58450;52.150;4.466;2022-10-16T01:14:40;2.60;;;1.00;;
66272;SDS011;58450;52.150;4.466;2022-10-16T01:17:15;3.92;;;1.08;;
66272;SDS011;58450;52.150;4.466;2022-10-16T01:19:58;3.95;;;1.10;;
66272;SDS011;58450;52.150;4.466;2022-10-16T01:22:38;2.58;;;0.90;;
66272;SDS011;58450;52.150;4.466;2022-10-16T01:25:25;2.83;;;1.10;;
66272;SDS011;58450;52.150;4.466;2022-10-16T01:28:10;3.05;;;1.27;;
66272;SDS011;58450;52.150;4.466;2022-10-16T01:30:41;2.05;;;1.05;;
66272;SDS011;58450;52.150;4.466;2022-10-16T01:33:13;4.53;;;1.38;;
66272;SDS011;58450;52.150;4.466;2022-10-16T01:35:47;5.47;;;1.20;;
66272;SDS011;58450;52.150;4.466;2022-10-16T01:38:23;1.70;;;1.08;;
66272;SDS011;58450;52.150;4.466;2022-10-16T01:40:59;3.72;;;1.20;;
66272;SDS011;58450;52.150;4.466;2022-10-16T01:43:36;3.35;;;1.42;;
66272;SDS011;58450;52.150;4.466;2022-10-16T01:46:09;2.30;;;1.17;;
66272;SDS011;58450;52.150;4.466;2022-10-16T01:48:40;2.65;;;1.17;;
66272;SDS011;58450;52.150;4.466;2022-10-16T01:51:08;3.85;;;1.30;;
66272;SDS011;58450;52.150;4.466;2022-10-16T01:53:40;2.50;;;1.30;;
66272;SDS011;58450;52.150;4.466;2022-10-16T01:56:13;2.90;;;1.30;;
66272;SDS011;58450;52.150;4.466;2022-10-16T01:58:48;3.67;;;1.20;;
66272;SDS011;58450;52.150;4.466;2022-10-16T02:01:21;4.10;;;1.33;;
66272;SDS011;58450;52.150;4.466;2022-10-16T02:03:55;2.80;;;1.20;;
66272;SDS011;58450;52.150;4.466;2022-10-16T02:06:31;1.67;;;1.10;;
66272;SDS011;58450;52.150;4.466;2022-10-16T02:09:00;3.90;;;1.10;;
66272;SDS011;58450;52.150;4.466;2022-10-16T02:11:27;4.30;;;1.25;;
66272;SDS011;58450;52.150;4.466;2022-10-16T02:13:58;3.00;;;1.13;;
66272;SDS011;58450;52.150;4.466;2022-10-16T02:16:34;2.50;;;1.08;;
66272;SDS011;58450;52.150;4.466;2022-10-16T02:19:03;2.72;;;1.13;;
66272;SDS011;58450;52.150;4.466;2022-10-16T02:21:35;2.35;;;1.23;;
66272;SDS011;58450;52.150;4.466;2022-10-16T02:24:13;2.80;;;1.40;;
66272;SDS011;58450;52.150;4.466;2022-10-16T02:26:54;2.33;;;1.30;;
66272;SDS011;58450;52.150;4.466;2022-10-16T02:29:31;2.92;;;1.23;;
66272;SDS011;58450;52.150;4.466;2022-10-16T02:32:06;1.95;;;1.20;;
66272;SDS011;58450;52.150;4.466;2022-10-16T02:34:39;3.40;;;1.30;;
66272;SDS011;58450;52.150;4.466;2022-10-16T02:37:08;3.58;;;1.40;;
66272;SDS011;58450;52.150;4.466;2022-10-16T02:39:36;3.20;;;1.40;;
66272;SDS011;58450;52.150;4.466;2022-10-16T02:42:09;3.65;;;1.40;;
66272;SDS011;58450;52.150;4.466;2022-10-16T02:44:38;5.50;;;1.20;;
66272;SDS011;58450;52.150;4.466;2022-10-16T02:47:06;2.58;;;1.30;;
66272;SDS011;58450;52.150;4.466;2022-10-16T02:49:33;2.38;;;1.55;;
66272;SDS011;58450;52.150;4.466;2022-10-16T02:52:01;6.05;;;1.60;;
66272;SDS011;58450;52.150;4.466;2022-10-16T02:54:28;3.67;;;1.70;;
66272;SDS011;58450;52.150;4.466;2022-10-16T02:56:56;4.05;;;1.60;;
66272;SDS011;58450;52.150;4.466;2022-10-16T02:59:23;4.18;;;1.50;;
66272;SDS011;58450;52.150;4.466;2022-10-16T03:01:52;5.03;;;1.45;;
66272;SDS011;58450;52.150;4.466;2022-10-16T03:04:19;2.50;;;1.50;;
66272;SDS011;58450;52.150;4.466;2022-10-16T03:06:47;5.55;;;1.65;;
66272;SDS011;58450;52.150;4.466;2022-10-16T03:09:14;5.00;;;1.55;;
66272;SDS011;58450;52.150;4.466;2022-10-16T03:11:42;4.40;;;1.67;;
66272;SDS011;58450;52.150;4.466;2022-10-16T03:14:09;3.22;;;1.60;;
66272;SDS011;58450;52.150;4.466;2022-10-16T03:16:36;3.33;;;1.60;;
66272;SDS011;58450;52.150;4.466;2022-10-16T03:19:05;4.38;;;1.58;;
66272;SDS011;58450;52.150;4.466;2022-10-16T03:21:33;2.53;;;1.55;;
66272;SDS011;58450;52.150;4.466;2022-10-16T03:24:01;3.45;;;1.52;;
66272;SDS011;58450;52.150;4.466;2022-10-16T03:26:28;3.92;;;1.63;;
66272;SDS011;58450;52.150;4.466;2022-10-16T03:28:56;5.10;;;1.30;;
66272;SDS011;58450;52.150;4.466;2022-10-16T03:31:23;3.63;;;1.40;;
66272;SDS011;58450;52.150;4.466;2022-10-16T03:33:50;3.35;;;1.40;;
66272;SDS011;58450;52.150;4.466;2022-10-16T03:36:19;3.53;;;1.40;;
66272;SDS011;58450;52.150;4.466;2022-10-16T03:38:47;3.55;;;1.30;;
66272;SDS011;58450;52.150;4.466;2022-10-16T03:41:14;4.22;;;1.10;;
66272;SDS011;58450;52.150;4.466;2022-10-16T03:43:41;3.85;;;1.23;;
66272;SDS011;58450;52.150;4.466;2022-10-16T03:46:09;3.30;;;1.15;;
66272;SDS011;58450;52.150;4.466;2022-10-16T03:48:36;4.75;;;1.27;;
66272;SDS011;58450;52.150;4.466;2022-10-16T03:51:05;3.92;;;1.20;;
66272;SDS011;58450;52.150;4.466;2022-10-16T03:53:34;4.25;;;1.20;;
66272;SDS011;58450;52.150;4.466;2022-10-16T03:56:01;4.90;;;1.45;;
66272;SDS011;58450;52.150;4.466;2022-10-16T03:58:29;3.70;;;1.13;;
66272;SDS011;58450;52.150;4.466;2022-10-16T04:00:56;2.92;;;1.00;;
66272;SDS011;58450;52.150;4.466;2022-10-16T04:03:24;3.20;;;1.00;;
66272;SDS011;58450;52.150;4.466;2022-10-16T04:05:51;4.30;;;1.20;;
66272;SDS011;58450;52.150;4.466;2022-10-16T04:08:19;5.20;;;1.25;;
66272;SDS011;58450;52.150;4.466;2022-10-16T04:10:48;5.72;;;1.33;;
66272;SDS011;58450;52.150;4.466;2022-10-16T04:13:15;2.97;;;1.15;;
66272;SDS011;58450;52.150;4.466;2022-10-16T04:15:44;5.43;;;1.20;;
66272;SDS011;58450;52.150;4.466;2022-10-16T04:18:12;5.30;;;1.27;;
66272;SDS011;58450;52.150;4.466;2022-10-16T04:20:40;4.43;;;1.15;;
66272;SDS011;58450;52.150;4.466;2022-10-16T04:23:07;2.33;;;1.20;;
66272;SDS011;58450;52.150;4.466;2022-10-16T04:25:35;3.03;;;1.10;;
66272;SDS011;58450;52.150;4.466;2022-10-16T04:28:04;4.13;;;1.20;;
66272;SDS011;58450;52.150;4.466;2022-10-16T04:30:31;3.03;;;1.10;;
66272;SDS011;58450;52.150;4.466;2022-10-16T04:32:59;3.67;;;1.23;;
66272;SDS011;58450;52.150;4.466;2022-10-16T04:35:26;4.00;;;1.27;;
66272;SDS011;58450;52.150;4.466;2022-10-16T04:37:54;3.65;;;1.20;;
66272;SDS011;58450;52.150;4.466;2022-10-16T04:40:24;6.35;;;1.50;;
66272;SDS011;58450;52.150;4.466;2022-10-16T04:42:51;4.22;;;1.50;;
66272;SDS011;58450;52.150;4.466;2022-10-16T04:45:20;4.80;;;1.30;;
66272;SDS011;58450;52.150;4.466;2022-10-16T04:47:47;4.30;;;1.23;;
66272;SDS011;58450;52.150;4.466;2022-10-16T04:50:14;3.75;;;1.17;;
66272;SDS011;58450;52.150;4.466;2022-10-16T04:52:42;3.80;;;1.30;;
66272;SDS011;58450;52.150;4.466;2022-10-16T04:55:09;4.07;;;1.30;;
66272;SDS011;58450;52.150;4.466;2022-10-16T04:57:37;3.50;;;1.30;;
66272;SDS011;58450;52.150;4.466;2022-10-16T05:00:05;6.05;;;1.52;;
66272;SDS011;58450;52.150;4.466;2022-10-16T05:02:35;3.70;;;1.20;;
66272;SDS011;58450;52.150;4.466;2022-10-16T05:05:02;4.55;;;1.40;;
66272;SDS011;58450;52.150;4.466;2022-10-16T05:07:31;5.35;;;1.50;;
66272;SDS011;58450;52.150;4.466;2022-10-16T05:09:58;6.10;;;1.50;;
66272;SDS011;58450;52.150;4.466;2022-10-16T05:12:25;3.22;;;1.30;;
66272;SDS011;58450;52.150;4.466;2022-10-16T05:14:53;2.47;;;1.30;;
66272;SDS011;58450;52.150;4.466;2022-10-16T05:17:24;4.28;;;1.40;;
66272;SDS011;58450;52.150;4.466;2022-10-16T05:19:53;3.55;;;1.67;;
66272;SDS011;58450;52.150;4.466;2022-10-16T05:22:20;4.25;;;1.60;;
66272;SDS011;58450;52.150;4.466;2022-10-16T05:24:47;4.47;;;1.38;;
66272;SDS011;58450;52.150;4.466;2022-10-16T05:27:15;3.60;;;1.40;;
66272;SDS011;58450;52.150;4.466;2022-10-16T05:29:45;3.95;;;1.30;;
66272;SDS011;58450;52.150;4.466;2022-10-16T05:32:14;7.20;;;1.63;;
66272;SDS011;58450;52.150;4.466;2022-10-16T05:34:43;5.35;;;1.80;;
66272;SDS011;58450;52.150;4.466;2022-10-16T05:37:12;5.43;;;1.67;;
66272;SDS011;58450;52.150;4.466;2022-10-16T05:39:40;4.82;;;1.60;;
66272;SDS011;58450;52.150;4.466;2022-10-16T05:42:07;5.65;;;1.67;;
66272;SDS011;58450;52.150;4.466;2022-10-16T05:44:34;3.00;;;1.60;;
66272;SDS011;58450;52.150;4.466;2022-10-16T05:47:02;5.57;;;1.80;;
66272;SDS011;58450;52.150;4.466;2022-10-16T05:49:29;3.97;;;1.50;;
66272;SDS011;58450;52.150;4.466;2022-10-16T05:51:57;5.05;;;1.73;;
66272;SDS011;58450;52.150;4.466;2022-10-16T05:54:25;4.78;;;1.60;;
66272;SDS011;58450;52.150;4.466;2022-10-16T05:56:53;5.28;;;1.80;;
66272;SDS011;58450;52.150;4.466;2022-10-16T05:59:20;6.13;;;2.08;;
66272;SDS011;58450;52.150;4.466;2022-10-16T06:01:48;6.40;;;2.08;;
66272;SDS011;58450;52.150;4.466;2022-10-16T06:04:15;5.50;;;2.10;;
66272;SDS011;58450;52.150;4.466;2022-10-16T06:06:42;5.10;;;2.10;;
66272;SDS011;58450;52.150;4.466;2022-10-16T06:09:10;4.45;;;2.20;;
66272;SDS011;58450;52.150;4.466;2022-10-16T06:11:39;3.72;;;1.85;;
66272;SDS011;58450;52.150;4.466;2022-10-16T06:14:07;6.85;;;2.42;;
66272;SDS011;58450;52.150;4.466;2022-10-16T06:16:36;4.97;;;1.80;;
66272;SDS011;58450;52.150;4.466;2022-10-16T06:19:04;3.80;;;1.77;;
66272;SDS011;58450;52.150;4.466;2022-10-16T06:21:33;6.25;;;1.85;;
66272;SDS011;58450;52.150;4.466;2022-10-16T06:24:01;4.88;;;2.08;;
66272;SDS011;58450;52.150;4.466;2022-10-16T06:26:29;9.02;;;2.10;;
66272;SDS011;58450;52.150;4.466;2022-10-16T06:28:59;6.35;;;2.00;;
66272;SDS011;58450;52.150;4.466;2022-10-16T06:31:29;4.43;;;1.75;;
66272;SDS011;58450;52.150;4.466;2022-10-16T06:33:59;7.50;;;1.92;;
66272;SDS011;58450;52.150;4.466;2022-10-16T06:36:27;5.32;;;1.70;;
66272;SDS011;58450;52.150;4.466;2022-10-16T06:38:55;4.65;;;1.85;;
66272;SDS011;58450;52.150;4.466;2022-10-16T06:41:23;5.82;;;1.50;;
66272;SDS011;58450;52.150;4.466;2022-10-16T06:43:50;7.18;;;1.60;;
66272;SDS011;58450;52.150;4.466;2022-10-16T06:46:21;6.40;;;1.52;;
66272;SDS011;58450;52.150;4.466;2022-10-16T06:48:50;8.27;;;1.70;;
66272;SDS011;58450;52.150;4.466;2022-10-16T06:51:19;11.38;;;1.75;;
66272;SDS011;58450;52.150;4.466;2022-10-16T06:53:49;7.30;;;1.55;;
66272;SDS011;58450;52.150;4.466;2022-10-16T06:56:20;7.35;;;1.65;;
66272;SDS011;58450;52.150;4.466;2022-10-16T06:58:49;8.55;;;1.70;;
66272;SDS011;58450;52.150;4.466;2022-10-16T07:01:20;6.63;;;1.45;;
66272;SDS011;58450;52.150;4.466;2022-10-16T07:03:49;4.85;;;1.38;;
66272;SDS011;58450;52.150;4.466;2022-10-16T07:06:19;8.27;;;1.20;;
66272;SDS011;58450;52.150;4.466;2022-10-16T07:08:50;7.00;;;1.60;;
66272;SDS011;58450;52.150;4.466;2022-10-16T07:11:19;7.78;;;1.75;;
66272;SDS011;58450;52.150;4.466;2022-10-16T07:13:50;7.28;;;1.40;;
66272;SDS011;58450;52.150;4.466;2022-10-16T07:16:20;7.78;;;1.83;;
66272;SDS011;58450;52.150;4.466;2022-10-16T07:18:50;6.68;;;1.60;;
66272;SDS011;58450;52.150;4.466;2022-10-16T07:21:23;6.60;;;1.57;;
66272;SDS011;58450;52.150;4.466;2022-10-16T07:23:53;5.28;;;1.50;;
66272;SDS011;58450;52.150;4.466;2022-10-16T07:26:23;4.55;;;1.50;;
66272;SDS011;58450;52.150;4.466;2022-10-16T07:28:52;5.53;;;1.55;;
66272;SDS011;58450;52.150;4.466;2022-10-16T07:31:21;5.00;;;1.52;;
66272;SDS011;58450;52.150;4.466;2022-10-16T07:33:49;6.78;;;1.73;;
66272;SDS011;58450;52.150;4.466;2022-10-16T07:36:18;5.68;;;1.50;;
66272;SDS011;58450;52.150;4.466;2022-10-16T07:38:47;5.60;;;2.00;;
66272;SDS011;58450;52.150;4.466;2022-10-16T07:41:15;4.80;;;1.30;;
66272;SDS011;58450;52.150;4.466;2022-10-16T07:43:45;6.53;;;1.55;;
66272;SDS011;58450;52.150;4.466;2022-10-16T07:46:14;4.72;;;1.85;;
66272;SDS011;58450;52.150;4.466;2022-10-16T07:48:44;4.13;;;1.30;;
66272;SDS011;58450;52.150;4.466;2022-10-16T07:51:14;5.25;;;1.25;;
66272;SDS011;58450;52.150;4.466;2022-10-16T07:53:44;5.57;;;1.52;;
66272;SDS011;58450;52.150;4.466;2022-10-16T07:56:11;5.13;;;1.60;;
66272;SDS011;58450;52.150;4.466;2022-10-16T07:58:40;6.15;;;1.70;;
66272;SDS011;58450;52.150;4.466;2022-10-16T08:01:08;5.35;;;1.15;;
66272;SDS011;58450;52.150;4.466;2022-10-16T08:03:41;5.07;;;1.35;;
66272;SDS011;58450;52.150;4.466;2022-10-16T08:06:11;5.78;;;1.20;;
66272;SDS011;58450;52.150;4.466;2022-10-16T08:08:38;6.50;;;1.70;;
66272;SDS011;58450;52.150;4.466;2022-10-16T08:11:06;6.25;;;1.60;;
66272;SDS011;58450;52.150;4.466;2022-10-16T08:13:34;4.07;;;1.30;;
66272;SDS011;58450;52.150;4.466;2022-10-16T08:16:02;5.38;;;1.30;;
66272;SDS011;58450;52.150;4.466;2022-10-16T08:18:33;9.63;;;1.65;;
66272;SDS011;58450;52.150;4.466;2022-10-16T08:21:02;7.68;;;1.25;;
66272;SDS011;58450;52.150;4.466;2022-10-16T08:23:33;6.57;;;1.60;;
66272;SDS011;58450;52.150;4.466;2022-10-16T08:26:02;4.35;;;1.15;;
66272;SDS011;58450;52.150;4.466;2022-10-16T08:28:32;9.00;;;1.75;;
66272;SDS011;58450;52.150;4.466;2022-10-16T08:31:06;7.30;;;1.58;;
66272;SDS011;58450;52.150;4.466;2022-10-16T08:33:36;5.80;;;1.40;;
66272;SDS011;58450;52.150;4.466;2022-10-16T08:36:04;6.13;;;1.60;;
66272;SDS011;58450;52.150;4.466;2022-10-16T08:38:34;7.47;;;1.50;;
66272;SDS011;58450;52.150;4.466;2022-10-16T08:41:09;7.13;;;1.55;;
66272;SDS011;58450;52.150;4.466;2022-10-16T08:44:07;7.70;;;1.50;;
66272;SDS011;58450;52.150;4.466;2022-10-16T08:46:59;5.57;;;1.45;;
66272;SDS011;58450;52.150;4.466;2022-10-16T08:49:39;5.90;;;1.30;;
66272;SDS011;58450;52.150;4.466;2022-10-16T08:52:12;8.73;;;1.52;;
66272;SDS011;58450;52.150;4.466;2022-10-16T08:54:42;6.95;;;1.50;;
66272;SDS011;58450;52.150;4.466;2022-10-16T08:57:16;5.72;;;1.30;;
66272;SDS011;58450;52.150;4.466;2022-10-16T08:59:47;7.97;;;1.52;;
66272;SDS011;58450;52.150;4.466;2022-10-16T09:02:20;6.88;;;1.85;;
66272;SDS011;58450;52.150;4.466;2022-10-16T09:04:58;6.28;;;1.20;;
66272;SDS011;58450;52.150;4.466;2022-10-16T09:07:54;9.75;;;1.77;;
66272;SDS011;58450;52.150;4.466;2022-10-16T09:10:37;8.70;;;1.60;;
66272;SDS011;58450;52.150;4.466;2022-10-16T09:13:22;10.35;;;1.60;;
66272;SDS011;58450;52.150;4.466;2022-10-16T09:15:59;8.20;;;1.73;;
66272;SDS011;58450;52.150;4.466;2022-10-16T09:18:44;9.10;;;1.88;;
66272;SDS011;58450;52.150;4.466;2022-10-16T09:21:22;8.27;;;2.05;;
66272;SDS011;58450;52.150;4.466;2022-10-16T09:23:54;7.20;;;1.40;;
66272;SDS011;58450;52.150;4.466;2022-10-16T09:26:28;11.90;;;1.80;;
66272;SDS011;58450;52.150;4.466;2022-10-16T09:28:55;6.95;;;1.67;;
66272;SDS011;58450;52.150;4.466;2022-10-16T09:31:23;10.05;;;1.92;;
66272;SDS011;58450;52.150;4.466;2022-10-16T09:33:51;10.07;;;2.00;;
66272;SDS011;58450;52.150;4.466;2022-10-16T09:36:25;7.05;;;1.83;;
66272;SDS011;58450;52.150;4.466;2022-10-16T09:39:02;8.18;;;1.70;;
66272;SDS011;58450;52.150;4.466;2022-10-16T09:41:35;11.77;;;2.35;;
66272;SDS011;58450;52.150;4.466;2022-10-16T09:44:14;7.97;;;1.65;;
66272;SDS011;58450;52.150;4.466;2022-10-16T09:46:49;7.70;;;1.85;;
66272;SDS011;58450;52.150;4.466;2022-10-16T09:49:28;9.38;;;1.75;;
66272;SDS011;58450;52.150;4.466;2022-10-16T09:52:02;8.18;;;1.90;;
66272;SDS011;58450;52.150;4.466;2022-10-16T09:54:31;10.30;;;2.35;;
66272;SDS011;58450;52.150;4.466;2022-10-16T09:57:06;10.60;;;1.90;;
66272;SDS011;58450;52.150;4.466;2022-10-16T09:59:45;11.63;;;2.35;;
66272;SDS011;58450;52.150;4.466;2022-10-16T10:02:15;9.45;;;1.80;;
66272;SDS011;58450;52.150;4.466;2022-10-16T10:04:48;10.18;;;1.60;;
66272;SDS011;58450;52.150;4.466;2022-10-16T10:07:21;8.30;;;2.22;;
66272;SDS011;58450;52.150;4.466;2022-10-16T10:09:53;10.63;;;1.60;;
66272;SDS011;58450;52.150;4.466;2022-10-16T10:12:25;11.25;;;2.00;;
66272;SDS011;58450;52.150;4.466;2022-10-16T10:14:56;10.27;;;1.92;;
66272;SDS011;58450;52.150;4.466;2022-10-16T10:17:31;8.23;;;1.60;;
66272;SDS011;58450;52.150;4.466;2022-10-16T10:19:59;7.82;;;1.95;;
66272;SDS011;58450;52.150;4.466;2022-10-16T10:22:43;9.20;;;2.00;;
66272;SDS011;58450;52.150;4.466;2022-10-16T10:25:14;6.88;;;2.03;;
66272;SDS011;58450;52.150;4.466;2022-10-16T10:27:56;8.15;;;1.75;;
66272;SDS011;58450;52.150;4.466;2022-10-16T10:30:45;9.70;;;1.60;;
66272;SDS011;58450;52.150;4.466;2022-10-16T10:33:25;9.18;;;1.55;;
66272;SDS011;58450;52.150;4.466;2022-10-16T10:36:08;10.25;;;1.80;;
66272;SDS011;58450;52.150;4.466;2022-10-16T10:38:50;8.05;;;1.52;;
66272;SDS011;58450;52.150;4.466;2022-10-16T10:41:48;9.30;;;2.20;;
66272;SDS011;58450;52.150;4.466;2022-10-16T10:44:50;6.88;;;1.70;;
66272;SDS011;58450;52.150;4.466;2022-10-16T10:47:44;9.27;;;1.75;;
66272;SDS011;58450;52.150;4.466;2022-10-16T10:50:25;7.25;;;1.38;;
66272;SDS011;58450;52.150;4.466;2022-10-16T10:53:09;8.52;;;1.48;;
66272;SDS011;58450;52.150;4.466;2022-10-16T10:55:52;9.80;;;1.90;;
66272;SDS011;58450;52.150;4.466;2022-10-16T10:58:39;9.25;;;1.50;;
66272;SDS011;58450;52.150;4.466;2022-10-16T11:01:33;6.68;;;1.60;;
66272;SDS011;58450;52.150;4.466;2022-10-16T11:04:18;6.88;;;1.58;;
66272;SDS011;58450;52.150;4.466;2022-10-16T11:07:16;6.70;;;1.40;;
66272;SDS011;58450;52.150;4.466;2022-10-16T11:09:52;8.90;;;1.45;;
66272;SDS011;58450;52.150;4.466;2022-10-16T11:12:27;7.82;;;1.67;;
66272;SDS011;58450;52.150;4.466;2022-10-16T11:15:02;7.63;;;1.67;;
66272;SDS011;58450;52.150;4.466;2022-10-16T11:17:43;9.50;;;1.48;;
66272;SDS011;58450;52.150;4.466;2022-10-16T11:20:19;7.65;;;1.65;;
66272;SDS011;58450;52.150;4.466;2022-10-16T11:22:53;8.05;;;1.65;;
66272;SDS011;58450;52.150;4.466;2022-10-16T11:25:28;7.57;;;1.60;;
66272;SDS011;58450;52.150;4.466;2022-10-16T11:27:59;7.85;;;1.30;;
66272;SDS011;58450;52.150;4.466;2022-10-16T11:30:39;11.60;;;1.80;;
66272;SDS011;58450;52.150;4.466;2022-10-16T11:33:24;9.02;;;1.70;;
66272;SDS011;58450;52.150;4.466;2022-10-16T11:36:03;8.98;;;1.67;;
66272;SDS011;58450;52.150;4.466;2022-10-16T11:38:43;8.05;;;1.55;;
66272;SDS011;58450;52.150;4.466;2022-10-16T11:41:22;8.95;;;1.70;;
66272;SDS011;58450;52.150;4.466;2022-10-16T11:44:04;6.03;;;1.50;;
66272;SDS011;58450;52.150;4.466;2022-10-16T11:46:48;8.50;;;1.70;;
66272;SDS011;58450;52.150;4.466;2022-10-16T11:49:35;7.28;;;1.40;;
66272;SDS011;58450;52.150;4.466;2022-10-16T11:52:07;8.35;;;1.52;;
66272;SDS011;58450;52.150;4.466;2022-10-16T11:54:48;7.57;;;1.33;;
66272;SDS011;58450;52.150;4.466;2022-10-16T11:57:21;7.43;;;1.23;;
66272;SDS011;58450;52.150;4.466;2022-10-16T11:59:54;8.68;;;1.67;;
66272;SDS011;58450;52.150;4.466;2022-10-16T12:02:30;7.47;;;1.48;;
66272;SDS011;58450;52.150;4.466;2022-10-16T12:05:20;6.63;;;1.60;;
66272;SDS011;58450;52.150;4.466;2022-10-16T12:08:01;6.13;;;1.30;;
66272;SDS011;58450;52.150;4.466;2022-10-16T12:10:37;5.15;;;1.45;;
66272;SDS011;58450;52.150;4.466;2022-10-16T12:18:50;7.35;;;1.77;;
66272;SDS011;58450;52.150;4.466;2022-10-16T12:21:40;7.63;;;1.50;;
66272;SDS011;58450;52.150;4.466;2022-10-16T12:24:19;6.30;;;1.20;;
66272;SDS011;58450;52.150;4.466;2022-10-16T12:26:58;9.48;;;1.80;;
66272;SDS011;58450;52.150;4.466;2022-10-16T12:29:29;7.32;;;1.60;;
66272;SDS011;58450;52.150;4.466;2022-10-16T12:32:05;8.55;;;1.83;;
66272;SDS011;58450;52.150;4.466;2022-10-16T12:34:53;7.82;;;1.83;;
66272;SDS011;58450;52.150;4.466;2022-10-16T12:37:22;6.78;;;1.50;;
66272;SDS011;58450;52.150;4.466;2022-10-16T12:39:53;6.97;;;1.30;;
66272;SDS011;58450;52.150;4.466;2022-10-16T12:42:30;8.30;;;1.75;;
66272;SDS011;58450;52.150;4.466;2022-10-16T12:45:01;7.85;;;1.70;;
66272;SDS011;58450;52.150;4.466;2022-10-16T12:47:51;9.23;;;1.63;;
66272;SDS011;58450;52.150;4.466;2022-10-16T12:50:28;5.70;;;1.35;;
66272;SDS011;58450;52.150;4.466;2022-10-16T12:53:03;5.95;;;1.48;;
66272;SDS011;58450;52.150;4.466;2022-10-16T12:55:46;7.57;;;1.75;;
66272;SDS011;58450;52.150;4.466;2022-10-16T12:58:33;7.95;;;1.63;;
66272;SDS011;58450;52.150;4.466;2022-10-16T13:01:28;7.03;;;1.30;;
66272;SDS011;58450;52.150;4.466;2022-10-16T13:07:35;6.43;;;1.58;;
66272;SDS011;58450;52.150;4.466;2022-10-16T13:10:23;6.85;;;1.35;;
66272;SDS011;58450;52.150;4.466;2022-10-16T13:13:04;8.10;;;1.70;;
66272;SDS011;58450;52.150;4.466;2022-10-16T13:15:57;6.65;;;1.80;;
66272;SDS011;58450;52.150;4.466;2022-10-16T13:18:40;5.75;;;1.60;;
66272;SDS011;58450;52.150;4.466;2022-10-16T13:21:26;7.97;;;1.80;;
66272;SDS011;58450;52.150;4.466;2022-10-16T13:24:12;6.55;;;1.33;;
66272;SDS011;58450;52.150;4.466;2022-10-16T13:27:03;7.15;;;1.45;;
66272;SDS011;58450;52.150;4.466;2022-10-16T13:29:44;7.55;;;1.50;;
66272;SDS011;58450;52.150;4.466;2022-10-16T13:32:14;7.78;;;1.50;;
66272;SDS011;58450;52.150;4.466;2022-10-16T13:34:43;6.05;;;1.20;;
66272;SDS011;58450;52.150;4.466;2022-10-16T13:37:16;6.28;;;1.58;;
66272;SDS011;58450;52.150;4.466;2022-10-16T13:39:45;8.30;;;1.33;;
66272;SDS011;58450;52.150;4.466;2022-10-16T13:42:15;5.57;;;1.50;;
66272;SDS011;58450;52.150;4.466;2022-10-16T13:44:51;6.47;;;1.50;;
66272;SDS011;58450;52.150;4.466;2022-10-16T13:47:21;5.68;;;1.38;;
66272;SDS011;58450;52.150;4.466;2022-10-16T13:49:58;7.13;;;1.40;;
66272;SDS011;58450;52.150;4.466;2022-10-16T13:52:27;5.57;;;1.38;;
66272;SDS011;58450;52.150;4.466;2022-10-16T13:54:55;6.15;;;1.25;;
66272;SDS011;58450;52.150;4.466;2022-10-16T13:57:24;8.73;;;1.70;;
66272;SDS011;58450;52.150;4.466;2022-10-16T13:59:52;6.93;;;1.30;;
66272;SDS011;58450;52.150;4.466;2022-10-16T14:02:22;9.40;;;1.65;;
66272;SDS011;58450;52.150;4.466;2022-10-16T14:04:56;7.22;;;1.70;;
66272;SDS011;58450;52.150;4.466;2022-10-16T14:07:26;3.33;;;1.05;;
66272;SDS011;58450;52.150;4.466;2022-10-16T14:09:59;7.57;;;1.40;;
66272;SDS011;58450;52.150;4.466;2022-10-16T14:12:32;7.82;;;1.42;;
66272;SDS011;58450;52.150;4.466;2022-10-16T14:15:02;5.60;;;1.42;;
66272;SDS011;58450;52.150;4.466;2022-10-16T14:17:32;5.07;;;1.17;;
66272;SDS011;58450;52.150;4.466;2022-10-16T14:20:03;6.75;;;1.33;;
66272;SDS011;58450;52.150;4.466;2022-10-16T14:22:40;5.10;;;1.30;;
66272;SDS011;58450;52.150;4.466;2022-10-16T14:25:21;6.13;;;1.38;;
66272;SDS011;58450;52.150;4.466;2022-10-16T14:27:58;5.32;;;1.27;;
66272;SDS011;58450;52.150;4.466;2022-10-16T14:30:29;7.10;;;1.63;;
66272;SDS011;58450;52.150;4.466;2022-10-16T14:33:00;6.40;;;1.30;;
66272;SDS011;58450;52.150;4.466;2022-10-16T14:35:31;6.45;;;1.60;;
66272;SDS011;58450;52.150;4.466;2022-10-16T14:38:02;3.38;;;1.00;;
66272;SDS011;58450;52.150;4.466;2022-10-16T14:40:32;6.95;;;1.45;;
66272;SDS011;58450;52.150;4.466;2022-10-16T14:43:04;8.77;;;1.45;;
66272;SDS011;58450;52.150;4.466;2022-10-16T14:45:32;7.85;;;1.77;;
66272;SDS011;58450;52.150;4.466;2022-10-16T14:48:03;6.63;;;1.50;;
66272;SDS011;58450;52.150;4.466;2022-10-16T14:50:44;3.83;;;1.10;;
66272;SDS011;58450;52.150;4.466;2022-10-16T14:53:12;5.43;;;1.20;;
66272;SDS011;58450;52.150;4.466;2022-10-16T14:55:40;4.97;;;1.30;;
66272;SDS011;58450;52.150;4.466;2022-10-16T14:58:11;6.28;;;1.35;;
66272;SDS011;58450;52.150;4.466;2022-10-16T15:00:43;7.72;;;1.55;;
66272;SDS011;58450;52.150;4.466;2022-10-16T15:03:11;4.78;;;1.10;;
66272;SDS011;58450;52.150;4.466;2022-10-16T15:05:39;3.90;;;1.17;;
66272;SDS011;58450;52.150;4.466;2022-10-16T15:08:07;4.47;;;1.10;;
66272;SDS011;58450;52.150;4.466;2022-10-16T15:10:35;2.95;;;1.02;;
66272;SDS011;58450;52.150;4.466;2022-10-16T15:13:08;4.43;;;0.98;;
66272;SDS011;58450;52.150;4.466;2022-10-16T15:15:41;5.43;;;1.30;;
66272;SDS011;58450;52.150;4.466;2022-10-16T15:18:11;5.40;;;1.30;;
66272;SDS011;58450;52.150;4.466;2022-10-16T15:20:40;5.82;;;1.77;;
66272;SDS011;58450;52.150;4.466;2022-10-16T15:23:12;7.65;;;2.13;;
66272;SDS011;58450;52.150;4.466;2022-10-16T15:25:42;7.13;;;2.47;;
66272;SDS011;58450;52.150;4.466;2022-10-16T15:28:14;7.50;;;2.58;;
66272;SDS011;58450;52.150;4.466;2022-10-16T15:30:43;7.15;;;3.17;;